Aérodrome :
LOGIN :

S'inscrire | Disclaimer

   EN    FR    IT 

 










Légende :    VFR   VFR Marginal   IFR   IFR Intensif   IFR Très Intensif
Visi : 
Plafond : 
>= 8 km
>= 3000ft
5 à 8 km
1000 à 3000 ft
1500m à 5 km
500 à 1000 ft
800 à 1500m
200 à 500 ft
< 800m
< 200 ft
Symboles :   Orages  Brouillard  Fortes neiges  Fortes précipitations  Vent > 20 kt
SIGMETs :   Divers  Orages  Givrage  Turbulence  Onde Orograph.  Cendres Volcan.






- Altitude de l'aérodrome : 59 ft
- Code IATA : TSF


LIPH - Treviso

DERNIER METAR :
  • 251920Z 21004KT 170V250 CAVOK 24/17 Q1014

METARs EXPIRÉS :
  • 251850Z 18004KT 090V220 CAVOK 25/18 Q1014
  • 251820Z 15006KT 130V190 CAVOK 25/17 Q1014
  • 251750Z 14007KT CAVOK 26/18 Q1013
  • 251720Z 14007KT CAVOK 26/17 Q1013
  • 251650Z 14005KT CAVOK 27/19 Q1012

TAF AMD TAF LIPH
Valide du 25 à 18h jusqu'au 26 à 18h UTC


251725Z 2518/2618 VRB05KT 9999 FEW020 SCT050
PROB30
TEMPO 2518/2520 4000 TSRA FEW015CB SCT050
BECMG 2600/2602 06010KT
BECMG 2608/2610 VRB05KT



MET'MAP, la Météo Aéronautique d'un coup d'oeil ! - Copyright ORBIFLY Décembre 2007 - Disclaimer

ORBIFLY MET'MAP TEAM :

Programmation & Développement : Alexandra Zaïnal
Sur une idée originale de : Baudouin d'Aumeries
Soutien technique & logistique : Manuel Goepfert
Assistance : Marc-Olivier Méhu

Contact : metmap@orbifly.com




SOURCES & CREDITS :

   NOAA